sensor_id;sensor_type;location;lat;lon;timestamp;pressure;altitude;pressure_sealevel;temperature;humidity
47670;BME280;33408;52.062;11.722;2023-05-20T00:00:44;102120.72;;;10.97;100.00
47670;BME280;33408;52.062;11.722;2023-05-20T00:03:10;102119.84;;;10.90;100.00
47670;BME280;33408;52.062;11.722;2023-05-20T00:05:37;102107.75;;;10.97;100.00
47670;BME280;33408;52.062;11.722;2023-05-20T00:08:04;102117.22;;;10.84;100.00
47670;BME280;33408;52.062;11.722;2023-05-20T00:10:33;102111.16;;;10.79;100.00
47670;BME280;33408;52.062;11.722;2023-05-20T00:13:00;102108.53;;;10.70;100.00
47670;BME280;33408;52.062;11.722;2023-05-20T00:15:26;102109.41;;;10.73;100.00
47670;BME280;33408;52.062;11.722;2023-05-20T00:17:54;102110.31;;;10.85;100.00
47670;BME280;33408;52.062;11.722;2023-05-20T00:20:21;102105.13;;;10.86;100.00
47670;BME280;33408;52.062;11.722;2023-05-20T00:22:48;102108.59;;;10.81;100.00
47670;BME280;33408;52.062;11.722;2023-05-20T00:25:15;102111.16;;;10.73;100.00
47670;BME280;33408;52.062;11.722;2023-05-20T00:27:42;102102.56;;;10.95;100.00
47670;BME280;33408;52.062;11.722;2023-05-20T00:30:09;102101.69;;;10.95;100.00
47670;BME280;33408;52.062;11.722;2023-05-20T00:32:36;102099.09;;;11.06;100.00
47670;BME280;33408;52.062;11.722;2023-05-20T00:35:05;102102.56;;;11.03;100.00
47670;BME280;33408;52.062;11.722;2023-05-20T00:37:32;102092.19;;;11.03;100.00
47670;BME280;33408;52.062;11.722;2023-05-20T00:39:58;102100.84;;;11.11;100.00
47670;BME280;33408;52.062;11.722;2023-05-20T00:42:26;102094.78;;;11.02;100.00
47670;BME280;33408;52.062;11.722;2023-05-20T00:44:54;102095.66;;;11.02;100.00
47670;BME280;33408;52.062;11.722;2023-05-20T00:47:25;102093.06;;;11.10;100.00
47670;BME280;33408;52.062;11.722;2023-05-20T00:49:52;102084.41;;;11.06;100.00
47670;BME280;33408;52.062;11.722;2023-05-20T00:52:21;102091.31;;;11.06;100.00
47670;BME280;33408;52.062;11.722;2023-05-20T00:54:48;102091.34;;;11.15;100.00
47670;BME280;33408;52.062;11.722;2023-05-20T00:57:15;102086.16;;;11.20;100.00
47670;BME280;33408;52.062;11.722;2023-05-20T00:59:42;102095.66;;;11.16;100.00
47670;BME280;33408;52.062;11.722;2023-05-20T01:02:09;102093.06;;;11.35;100.00
47670;BME280;33408;52.062;11.722;2023-05-20T01:04:36;102087.88;;;11.16;100.00
47670;BME280;33408;52.062;11.722;2023-05-20T01:07:04;102088.75;;;11.30;100.00
47670;BME280;33408;52.062;11.722;2023-05-20T01:09:33;102086.19;;;11.38;100.00
47670;BME280;33408;52.062;11.722;2023-05-20T01:12:05;102082.69;;;11.36;100.00
47670;BME280;33408;52.062;11.722;2023-05-20T01:14:46;102077.50;;;11.44;100.00
47670;BME280;33408;52.062;11.722;2023-05-20T01:17:14;102073.16;;;11.44;100.00
47670;BME280;33408;52.062;11.722;2023-05-20T01:19:43;102072.31;;;11.52;100.00
47670;BME280;33408;52.062;11.722;2023-05-20T01:22:11;102069.72;;;11.50;100.00
47670;BME280;33408;52.062;11.722;2023-05-20T01:24:41;102073.16;;;11.52;100.00
47670;BME280;33408;52.062;11.722;2023-05-20T01:27:08;102061.91;;;11.56;100.00
47670;BME280;33408;52.062;11.722;2023-05-20T01:29:36;102058.44;;;11.57;100.00
47670;BME280;33408;52.062;11.722;2023-05-20T01:32:05;102065.38;;;11.49;100.00
47670;BME280;33408;52.062;11.722;2023-05-20T01:34:34;102062.78;;;11.52;100.00
47670;BME280;33408;52.062;11.722;2023-05-20T01:37:03;102067.13;;;11.53;100.00
47670;BME280;33408;52.062;11.722;2023-05-20T01:39:30;102061.94;;;11.50;100.00
47670;BME280;33408;52.062;11.722;2023-05-20T01:41:59;102056.72;;;11.53;100.00
47670;BME280;33408;52.062;11.722;2023-05-20T01:44:27;102055.88;;;11.48;100.00
47670;BME280;33408;52.062;11.722;2023-05-20T01:46:53;102064.53;;;11.52;100.00
47670;BME280;33408;52.062;11.722;2023-05-20T01:49:20;102061.06;;;11.48;100.00
47670;BME280;33408;52.062;11.722;2023-05-20T01:51:46;102066.22;;;11.56;100.00
47670;BME280;33408;52.062;11.722;2023-05-20T01:54:13;102063.63;;;11.56;100.00
47670;BME280;33408;52.062;11.722;2023-05-20T01:56:40;102064.53;;;11.52;100.00
47670;BME280;33408;52.062;11.722;2023-05-20T01:59:08;102058.44;;;11.56;100.00
47670;BME280;33408;52.062;11.722;2023-05-20T02:01:34;102058.44;;;11.53;100.00
47670;BME280;33408;52.062;11.722;2023-05-20T02:04:01;102054.13;;;11.62;100.00
47670;BME280;33408;52.062;11.722;2023-05-20T02:06:27;102055.84;;;11.56;100.00
47670;BME280;33408;52.062;11.722;2023-05-20T02:08:54;102060.19;;;11.64;100.00
47670;BME280;33408;52.062;11.722;2023-05-20T02:11:21;102053.25;;;11.60;100.00
47670;BME280;33408;52.062;11.722;2023-05-20T02:13:48;102054.97;;;11.54;100.00
47670;BME280;33408;52.062;11.722;2023-05-20T02:16:16;102054.97;;;11.61;100.00
47670;BME280;33408;52.062;11.722;2023-05-20T02:18:43;102048.94;;;11.59;100.00
47670;BME280;33408;52.062;11.722;2023-05-20T02:21:09;102057.59;;;11.55;100.00
47670;BME280;33408;52.062;11.722;2023-05-20T02:23:36;102058.44;;;11.53;100.00
47670;BME280;33408;52.062;11.722;2023-05-20T02:26:03;102060.19;;;11.52;100.00
47670;BME280;33408;52.062;11.722;2023-05-20T02:28:29;102064.53;;;11.56;100.00
47670;BME280;33408;52.062;11.722;2023-05-20T02:30:56;102057.59;;;11.57;100.00
47670;BME280;33408;52.062;11.722;2023-05-20T02:33:24;102051.53;;;11.56;100.00
47670;BME280;33408;52.062;11.722;2023-05-20T02:35:53;102060.19;;;11.58;100.00
47670;BME280;33408;52.062;11.722;2023-05-20T02:38:19;102061.03;;;11.59;100.00
47670;BME280;33408;52.062;11.722;2023-05-20T02:40:46;102053.28;;;11.49;100.00
47670;BME280;33408;52.062;11.722;2023-05-20T02:43:12;102051.53;;;11.45;100.00
47670;BME280;33408;52.062;11.722;2023-05-20T02:45:39;102059.31;;;11.48;100.00
47670;BME280;33408;52.062;11.722;2023-05-20T02:48:06;102055.84;;;11.54;100.00
47670;BME280;33408;52.062;11.722;2023-05-20T02:50:37;102055.84;;;11.51;100.00
47670;BME280;33408;52.062;11.722;2023-05-20T02:53:03;102057.59;;;11.50;100.00
47670;BME280;33408;52.062;11.722;2023-05-20T02:55:33;102053.25;;;11.54;100.00
47670;BME280;33408;52.062;11.722;2023-05-20T02:57:59;102055.00;;;11.50;100.00
47670;BME280;33408;52.062;11.722;2023-05-20T03:00:26;102055.88;;;11.49;100.00
47670;BME280;33408;52.062;11.722;2023-05-20T03:02:54;102052.38;;;11.58;100.00
47670;BME280;33408;52.062;11.722;2023-05-20T03:05:21;102055.00;;;11.47;100.00
47670;BME280;33408;52.062;11.722;2023-05-20T03:07:49;102054.13;;;11.56;100.00
47670;BME280;33408;52.062;11.722;2023-05-20T03:10:15;102055.84;;;11.53;100.00
47670;BME280;33408;52.062;11.722;2023-05-20T03:12:42;102054.13;;;11.53;100.00
47670;BME280;33408;52.062;11.722;2023-05-20T03:15:09;102057.59;;;11.49;100.00
47670;BME280;33408;52.062;11.722;2023-05-20T03:17:36;102067.97;;;11.49;100.00
47670;BME280;33408;52.062;11.722;2023-05-20T03:20:03;102068.81;;;11.51;100.00
47670;BME280;33408;52.062;11.722;2023-05-20T03:22:31;102075.75;;;11.49;100.00
47670;BME280;33408;52.062;11.722;2023-05-20T03:24:59;102072.31;;;11.47;100.00
47670;BME280;33408;52.062;11.722;2023-05-20T03:27:26;102065.38;;;11.55;100.00
47670;BME280;33408;52.062;11.722;2023-05-20T03:29:53;102074.91;;;11.56;100.00
47670;BME280;33408;52.062;11.722;2023-05-20T03:32:19;102070.56;;;11.60;100.00
47670;BME280;33408;52.062;11.722;2023-05-20T03:34:46;102070.56;;;11.54;100.00
47670;BME280;33408;52.062;11.722;2023-05-20T03:37:12;102074.91;;;11.61;100.00
47670;BME280;33408;52.062;11.722;2023-05-20T03:39:39;102080.97;;;11.57;100.00
47670;BME280;33408;52.062;11.722;2023-05-20T03:42:07;102067.97;;;11.61;100.00
47670;BME280;33408;52.062;11.722;2023-05-20T03:44:34;102066.22;;;11.56;100.00
47670;BME280;33408;52.062;11.722;2023-05-20T03:47:00;102072.31;;;11.53;100.00
47670;BME280;33408;52.062;11.722;2023-05-20T03:49:27;102067.13;;;11.62;100.00
47670;BME280;33408;52.062;11.722;2023-05-20T03:51:53;102074.03;;;11.54;100.00
47670;BME280;33408;52.062;11.722;2023-05-20T03:54:20;102073.16;;;11.60;100.00
47670;BME280;33408;52.062;11.722;2023-05-20T03:56:46;102068.81;;;11.62;100.00
47670;BME280;33408;52.062;11.722;2023-05-20T03:59:15;102074.00;;;11.68;100.00
47670;BME280;33408;52.062;11.722;2023-05-20T04:01:42;102080.09;;;11.62;100.00
47670;BME280;33408;52.062;11.722;2023-05-20T04:04:08;102076.63;;;11.63;100.00
47670;BME280;33408;52.062;11.722;2023-05-20T04:06:35;102070.56;;;11.55;100.00
47670;BME280;33408;52.062;11.722;2023-05-20T04:09:02;102075.75;;;11.61;100.00
47670;BME280;33408;52.062;11.722;2023-05-20T04:11:28;102072.31;;;11.62;100.00
47670;BME280;33408;52.062;11.722;2023-05-20T04:13:55;102067.97;;;11.55;100.00
47670;BME280;33408;52.062;11.722;2023-05-20T04:16:24;102071.41;;;11.66;100.00
47670;BME280;33408;52.062;11.722;2023-05-20T04:18:51;102072.31;;;11.59;100.00
47670;BME280;33408;52.062;11.722;2023-05-20T04:21:17;102074.03;;;11.62;100.00
47670;BME280;33408;52.062;11.722;2023-05-20T04:23:44;102064.53;;;11.58;100.00
47670;BME280;33408;52.062;11.722;2023-05-20T04:26:10;102065.38;;;11.54;100.00
47670;BME280;33408;52.062;11.722;2023-05-20T04:28:37;102054.13;;;11.62;100.00
47670;BME280;33408;52.062;11.722;2023-05-20T04:31:06;102060.19;;;11.61;100.00
47670;BME280;33408;52.062;11.722;2023-05-20T04:33:34;102058.44;;;11.54;100.00
47670;BME280;33408;52.062;11.722;2023-05-20T04:36:02;102055.84;;;11.57;100.00
47670;BME280;33408;52.062;11.722;2023-05-20T04:38:29;102061.03;;;11.59;100.00
47670;BME280;33408;52.062;11.722;2023-05-20T04:40:56;102058.44;;;11.60;100.00
47670;BME280;33408;52.062;11.722;2023-05-20T04:43:23;102054.97;;;11.61;100.00
47670;BME280;33408;52.062;11.722;2023-05-20T04:45:50;102059.28;;;11.65;100.00
47670;BME280;33408;52.062;11.722;2023-05-20T04:48:18;102061.88;;;11.65;100.00
47670;BME280;33408;52.062;11.722;2023-05-20T04:50:46;102060.19;;;11.64;100.00
47670;BME280;33408;52.062;11.722;2023-05-20T04:53:13;102062.78;;;11.60;100.00
47670;BME280;33408;52.062;11.722;2023-05-20T04:55:40;102062.75;;;11.75;100.00
47670;BME280;33408;52.062;11.722;2023-05-20T04:58:07;102061.00;;;11.77;100.00
47670;BME280;33408;52.062;11.722;2023-05-20T05:00:39;102056.69;;;11.73;100.00
47670;BME280;33408;52.062;11.722;2023-05-20T05:03:06;102057.56;;;11.74;100.00
47670;BME280;33408;52.062;11.722;2023-05-20T05:05:33;102050.63;;;11.77;100.00
47670;BME280;33408;52.062;11.722;2023-05-20T05:08:01;102054.91;;;11.86;100.00
47670;BME280;33408;52.062;11.722;2023-05-20T05:10:28;102059.28;;;11.82;100.00
47670;BME280;33408;52.062;11.722;2023-05-20T05:12:54;102064.47;;;11.76;100.00
47670;BME280;33408;52.062;11.722;2023-05-20T05:15:21;102061.88;;;11.78;100.00
47670;BME280;33408;52.062;11.722;2023-05-20T05:17:47;102068.81;;;11.76;100.00
47670;BME280;33408;52.062;11.722;2023-05-20T05:20:14;102067.91;;;11.81;100.00
47670;BME280;33408;52.062;11.722;2023-05-20T05:22:41;102066.19;;;11.94;100.00
47670;BME280;33408;52.062;11.722;2023-05-20T05:25:10;102067.97;;;11.74;100.00
47670;BME280;33408;52.062;11.722;2023-05-20T05:27:37;102069.66;;;11.76;100.00
47670;BME280;33408;52.062;11.722;2023-05-20T05:30:05;102067.06;;;11.84;100.00
47670;BME280;33408;52.062;11.722;2023-05-20T05:32:32;102066.19;;;11.93;100.00
47670;BME280;33408;52.062;11.722;2023-05-20T05:34:59;102067.94;;;11.92;100.00
47670;BME280;33408;52.062;11.722;2023-05-20T05:37:26;102057.53;;;12.03;100.00
47670;BME280;33408;52.062;11.722;2023-05-20T05:39:52;102057.53;;;12.03;100.00
47670;BME280;33408;52.062;11.722;2023-05-20T05:42:20;102055.72;;;12.20;100.00
47670;BME280;33408;52.062;11.722;2023-05-20T05:44:47;102061.69;;;12.38;100.00
47670;BME280;33408;52.062;11.722;2023-05-20T05:47:14;102064.28;;;12.44;100.00
47670;BME280;33408;52.062;11.722;2023-05-20T05:49:40;102060.09;;;12.11;100.00
47670;BME280;33408;52.062;11.722;2023-05-20T05:52:10;102060.78;;;12.51;100.00
47670;BME280;33408;52.062;11.722;2023-05-20T05:54:36;102059.00;;;12.63;100.00
47670;BME280;33408;52.062;11.722;2023-05-20T05:57:03;102057.97;;;12.85;100.00
47670;BME280;33408;52.062;11.722;2023-05-20T05:59:33;102069.06;;;13.10;100.00
47670;BME280;33408;52.062;11.722;2023-05-20T06:01:59;102063.72;;;13.30;100.00
47670;BME280;33408;52.062;11.722;2023-05-20T06:04:26;102063.16;;;13.89;100.00
47670;BME280;33408;52.062;11.722;2023-05-20T06:06:52;102067.34;;;14.07;100.00
47670;BME280;33408;52.062;11.722;2023-05-20T06:09:19;102068.34;;;13.94;100.00
47670;BME280;33408;52.062;11.722;2023-05-20T06:11:46;102060.63;;;14.56;100.00
47670;BME280;33408;52.062;11.722;2023-05-20T06:14:12;102061.06;;;14.87;100.00
47670;BME280;33408;52.062;11.722;2023-05-20T06:16:40;102058.66;;;14.75;100.00
47670;BME280;33408;52.062;11.722;2023-05-20T06:19:07;102058.25;;;15.01;100.00
47670;BME280;33408;52.062;11.722;2023-05-20T06:21:34;102054.69;;;15.57;100.00
47670;BME280;33408;52.062;11.722;2023-05-20T06:24:01;102055.25;;;15.24;100.00
47670;BME280;33408;52.062;11.722;2023-05-20T06:26:27;102050.72;;;15.34;100.00
47670;BME280;33408;52.062;11.722;2023-05-20T06:28:54;102058.28;;;14.34;100.00
47670;BME280;33408;52.062;11.722;2023-05-20T06:31:20;102051.88;;;14.60;100.00
47670;BME280;33408;52.062;11.722;2023-05-20T06:33:48;102048.47;;;15.14;100.00
47670;BME280;33408;52.062;11.722;2023-05-20T06:36:16;102051.53;;;14.85;100.00
47670;BME280;33408;52.062;11.722;2023-05-20T06:38:43;102049.28;;;14.57;100.00
47670;BME280;33408;52.062;11.722;2023-05-20T06:41:09;102041.59;;;14.48;100.00
47670;BME280;33408;52.062;11.722;2023-05-20T06:43:36;102047.78;;;14.39;100.00
47670;BME280;33408;52.062;11.722;2023-05-20T06:46:02;102041.53;;;14.52;100.00
47670;BME280;33408;52.062;11.722;2023-05-20T06:48:29;102041.63;;;14.46;100.00
47670;BME280;33408;52.062;11.722;2023-05-20T06:50:57;102035.56;;;14.44;100.00
47670;BME280;33408;52.062;11.722;2023-05-20T06:53:23;102037.53;;;14.27;100.00
47670;BME280;33408;52.062;11.722;2023-05-20T06:55:52;102035.16;;;14.75;100.00
47670;BME280;33408;52.062;11.722;2023-05-20T06:58:19;102030.13;;;14.58;100.00
47670;BME280;33408;52.062;11.722;2023-05-20T07:00:46;102035.38;;;14.59;100.00
47670;BME280;33408;52.062;11.722;2023-05-20T07:03:13;102032.84;;;14.52;100.00
47670;BME280;33408;52.062;11.722;2023-05-20T07:05:39;102029.97;;;14.72;100.00
47670;BME280;33408;52.062;11.722;2023-05-20T07:08:07;102034.84;;;14.95;100.00
47670;BME280;33408;52.062;11.722;2023-05-20T07:10:34;102023.94;;;15.21;100.00
47670;BME280;33408;52.062;11.722;2023-05-20T07:13:01;102026.03;;;15.54;100.00
47670;BME280;33408;52.062;11.722;2023-05-20T07:15:30;102016.94;;;15.26;100.00
47670;BME280;33408;52.062;11.722;2023-05-20T07:17:57;102021.13;;;15.34;100.00
47670;BME280;33408;52.062;11.722;2023-05-20T07:20:24;102019.91;;;15.03;100.00
47670;BME280;33408;52.062;11.722;2023-05-20T07:22:50;102015.84;;;14.85;100.00
47670;BME280;33408;52.062;11.722;2023-05-20T07:25:18;102013.38;;;14.76;100.00
47670;BME280;33408;52.062;11.722;2023-05-20T07:27:45;102012.19;;;14.95;100.00
47670;BME280;33408;52.062;11.722;2023-05-20T07:30:11;102005.50;;;14.79;100.00
47670;BME280;33408;52.062;11.722;2023-05-20T07:32:38;102002.59;;;14.99;100.00
47670;BME280;33408;52.062;11.722;2023-05-20T07:35:05;102002.56;;;15.01;100.00
47670;BME280;33408;52.062;11.722;2023-05-20T07:37:32;102001.75;;;14.95;100.00
47670;BME280;33408;52.062;11.722;2023-05-20T07:39:58;101994.09;;;14.85;100.00
47670;BME280;33408;52.062;11.722;2023-05-20T07:42:26;101992.81;;;15.10;100.00
47670;BME280;33408;52.062;11.722;2023-05-20T07:44:53;101994.06;;;15.39;100.00
47670;BME280;33408;52.062;11.722;2023-05-20T07:47:20;101994.72;;;15.01;100.00
47670;BME280;33408;52.062;11.722;2023-05-20T07:49:46;101998.13;;;15.06;100.00
47670;BME280;33408;52.062;11.722;2023-05-20T07:52:13;102004.16;;;15.08;100.00
47670;BME280;33408;52.062;11.722;2023-05-20T07:54:40;102001.94;;;14.85;100.00
47670;BME280;33408;52.062;11.722;2023-05-20T07:57:06;102001.31;;;14.69;100.00
47670;BME280;33408;52.062;11.722;2023-05-20T07:59:34;102000.03;;;14.94;100.00
47670;BME280;33408;52.062;11.722;2023-05-20T08:02:01;102001.91;;;14.86;100.00
47670;BME280;33408;52.062;11.722;2023-05-20T08:04:28;101998.34;;;14.90;100.00
47670;BME280;33408;52.062;11.722;2023-05-20T08:06:54;101991.00;;;15.14;100.00
47670;BME280;33408;52.062;11.722;2023-05-20T08:09:21;102004.63;;;15.31;100.00
47670;BME280;33408;52.062;11.722;2023-05-20T08:11:47;102002.97;;;14.73;100.00
47670;BME280;33408;52.062;11.722;2023-05-20T08:14:14;102002.84;;;14.82;100.00
47670;BME280;33408;52.062;11.722;2023-05-20T08:16:42;102005.84;;;15.12;100.00
47670;BME280;33408;52.062;11.722;2023-05-20T08:19:09;101992.31;;;14.88;100.00
47670;BME280;33408;52.062;11.722;2023-05-20T08:21:40;101996.53;;;14.94;100.00
47670;BME280;33408;52.062;11.722;2023-05-20T08:24:06;101993.25;;;15.34;100.00
47670;BME280;33408;52.062;11.722;2023-05-20T08:26:33;101997.81;;;15.23;100.00
47670;BME280;33408;52.062;11.722;2023-05-20T08:29:00;101988.97;;;14.80;100.00
47670;BME280;33408;52.062;11.722;2023-05-20T08:31:27;101988.16;;;14.76;100.00
47670;BME280;33408;52.062;11.722;2023-05-20T08:33:55;101984.69;;;14.74;100.00
47670;BME280;33408;52.062;11.722;2023-05-20T08:36:22;101985.97;;;15.02;100.00
47670;BME280;33408;52.062;11.722;2023-05-20T08:38:48;101996.16;;;15.19;100.00
47670;BME280;33408;52.062;11.722;2023-05-20T08:41:15;101993.78;;;15.53;100.00
47670;BME280;33408;52.062;11.722;2023-05-20T08:43:42;101995.81;;;15.37;100.00
47670;BME280;33408;52.062;11.722;2023-05-20T08:46:09;101998.63;;;15.28;100.00
47670;BME280;33408;52.062;11.722;2023-05-20T08:48:37;101994.91;;;14.90;100.00
47670;BME280;33408;52.062;11.722;2023-05-20T08:51:08;101994.91;;;14.88;100.00
47670;BME280;33408;52.062;11.722;2023-05-20T08:53:35;101993.69;;;15.09;100.00
47670;BME280;33408;52.062;11.722;2023-05-20T08:56:02;101989.28;;;15.13;100.00
47670;BME280;33408;52.062;11.722;2023-05-20T08:58:28;101994.03;;;14.91;100.00
47670;BME280;33408;52.062;11.722;2023-05-20T09:00:55;101985.09;;;15.03;100.00
47670;BME280;33408;52.062;11.722;2023-05-20T09:03:23;101988.66;;;14.99;100.00
47670;BME280;33408;52.062;11.722;2023-05-20T09:05:50;101985.41;;;14.84;100.00
47670;BME280;33408;52.062;11.722;2023-05-20T09:08:22;101984.03;;;15.14;100.00
47670;BME280;33408;52.062;11.722;2023-05-20T09:10:51;101985.41;;;15.34;100.00
47670;BME280;33408;52.062;11.722;2023-05-20T09:13:17;101978.88;;;15.10;100.00
47670;BME280;33408;52.062;11.722;2023-05-20T09:15:44;101979.53;;;15.21;100.00
47670;BME280;33408;52.062;11.722;2023-05-20T09:18:10;101983.03;;;15.22;100.00
47670;BME280;33408;52.062;11.722;2023-05-20T09:20:37;101977.88;;;15.19;100.00
47670;BME280;33408;52.062;11.722;2023-05-20T09:23:07;101991.13;;;15.06;100.00
47670;BME280;33408;52.062;11.722;2023-05-20T09:25:35;101977.03;;;15.17;100.00
47670;BME280;33408;52.062;11.722;2023-05-20T09:28:03;101973.34;;;15.28;100.00
47670;BME280;33408;52.062;11.722;2023-05-20T09:30:31;101985.38;;;15.36;100.00
47670;BME280;33408;52.062;11.722;2023-05-20T09:32:59;101977.84;;;15.20;100.00
47670;BME280;33408;52.062;11.722;2023-05-20T09:35:27;101977.63;;;15.31;100.00
47670;BME280;33408;52.062;11.722;2023-05-20T09:37:54;101981.72;;;14.98;100.00
47670;BME280;33408;52.062;11.722;2023-05-20T09:40:23;101987.16;;;15.34;100.00
47670;BME280;33408;52.062;11.722;2023-05-20T09:42:54;101978.91;;;15.08;100.00
47670;BME280;33408;52.062;11.722;2023-05-20T09:45:22;101979.19;;;14.91;100.00
47670;BME280;33408;52.062;11.722;2023-05-20T09:47:49;101973.59;;;15.13;100.00
47670;BME280;33408;52.062;11.722;2023-05-20T09:50:17;101974.09;;;15.34;100.00
47670;BME280;33408;52.062;11.722;2023-05-20T09:52:46;101966.53;;;15.18;100.00
47670;BME280;33408;52.062;11.722;2023-05-20T09:55:13;101966.28;;;15.34;100.00
47670;BME280;33408;52.062;11.722;2023-05-20T09:57:41;101966.69;;;15.57;100.00
47670;BME280;33408;52.062;11.722;2023-05-20T10:00:09;101964.19;;;15.53;100.00
47670;BME280;33408;52.062;11.722;2023-05-20T10:02:40;101969.00;;;15.27;100.00
47670;BME280;33408;52.062;11.722;2023-05-20T10:05:13;101974.81;;;15.42;100.00
47670;BME280;33408;52.062;11.722;2023-05-20T10:08:22;101969.06;;;15.69;100.00
47670;BME280;33408;52.062;11.722;2023-05-20T10:10:58;101959.03;;;15.48;100.00
47670;BME280;33408;52.062;11.722;2023-05-20T10:13:44;101956.06;;;15.66;100.00
47670;BME280;33408;52.062;11.722;2023-05-20T10:16:24;101956.16;;;16.06;100.00
47670;BME280;33408;52.062;11.722;2023-05-20T10:19:00;101951.53;;;15.78;100.00
47670;BME280;33408;52.062;11.722;2023-05-20T10:21:31;101950.19;;;15.99;100.00
47670;BME280;33408;52.062;11.722;2023-05-20T10:24:05;101958.50;;;15.74;100.00
47670;BME280;33408;52.062;11.722;2023-05-20T10:26:34;101954.84;;;15.39;100.00
47670;BME280;33408;52.062;11.722;2023-05-20T10:29:01;101942.28;;;15.58;100.00
47670;BME280;33408;52.062;11.722;2023-05-20T10:31:29;101937.41;;;15.85;100.00
47670;BME280;33408;52.062;11.722;2023-05-20T10:33:58;101939.13;;;15.88;100.00
47670;BME280;33408;52.062;11.722;2023-05-20T10:36:26;101933.56;;;16.01;100.00
47670;BME280;33408;52.062;11.722;2023-05-20T10:38:54;101933.81;;;16.30;100.00
47670;BME280;33408;52.062;11.722;2023-05-20T10:41:22;101938.03;;;15.96;100.00
47670;BME280;33408;52.062;11.722;2023-05-20T10:43:59;101932.69;;;16.02;100.00
47670;BME280;33408;52.062;11.722;2023-05-20T10:46:26;101925.38;;;16.17;100.00
47670;BME280;33408;52.062;11.722;2023-05-20T10:48:54;101931.50;;;16.16;100.00
47670;BME280;33408;52.062;11.722;2023-05-20T10:51:22;101931.22;;;16.28;100.00
47670;BME280;33408;52.062;11.722;2023-05-20T10:53:52;101926.91;;;16.26;100.00
47670;BME280;33408;52.062;11.722;2023-05-20T10:56:20;101918.03;;;16.33;100.00
47670;BME280;33408;52.062;11.722;2023-05-20T10:58:48;101924.19;;;16.66;100.00
47670;BME280;33408;52.062;11.722;2023-05-20T11:01:15;101913.44;;;16.43;100.00
47670;BME280;33408;52.062;11.722;2023-05-20T11:03:44;101907.88;;;16.92;100.00
47670;BME280;33408;52.062;11.722;2023-05-20T11:06:13;101901.31;;;17.40;100.00
47670;BME280;33408;52.062;11.722;2023-05-20T11:08:40;101905.94;;;16.99;100.00
47670;BME280;33408;52.062;11.722;2023-05-20T11:11:06;101893.34;;;17.13;100.00
47670;BME280;33408;52.062;11.722;2023-05-20T11:13:33;101888.69;;;16.90;100.00
47670;BME280;33408;52.062;11.722;2023-05-20T11:16:00;101883.09;;;17.04;100.00
47670;BME280;33408;52.062;11.722;2023-05-20T11:18:27;101877.22;;;17.59;100.00
47670;BME280;33408;52.062;11.722;2023-05-20T11:20:56;101877.66;;;16.77;100.00
47670;BME280;33408;52.062;11.722;2023-05-20T11:23:25;101870.72;;;17.09;100.00
47670;BME280;33408;52.062;11.722;2023-05-20T11:25:54;101869.69;;;17.17;100.00
47670;BME280;33408;52.062;11.722;2023-05-20T11:28:21;101866.81;;;17.56;100.00
47670;BME280;33408;52.062;11.722;2023-05-20T11:30:48;101864.56;;;17.42;100.00
47670;BME280;33408;52.062;11.722;2023-05-20T11:33:16;101858.97;;;18.12;100.00
47670;BME280;33408;52.062;11.722;2023-05-20T11:35:44;101857.75;;;17.96;100.00
47670;BME280;33408;52.062;11.722;2023-05-20T11:38:11;101852.47;;;17.38;100.00
47670;BME280;33408;52.062;11.722;2023-05-20T11:40:43;101850.56;;;17.13;100.00
47670;BME280;33408;52.062;11.722;2023-05-20T11:43:11;101848.56;;;17.23;100.00
47670;BME280;33408;52.062;11.722;2023-05-20T11:45:38;101850.44;;;17.47;100.00
47670;BME280;33408;52.062;11.722;2023-05-20T11:48:05;101840.13;;;17.11;100.00
47670;BME280;33408;52.062;11.722;2023-05-20T11:50:34;101840.31;;;17.35;100.00
47670;BME280;33408;52.062;11.722;2023-05-20T11:53:04;101853.69;;;17.56;100.00
47670;BME280;33408;52.062;11.722;2023-05-20T11:55:31;101845.41;;;17.40;100.00
47670;BME280;33408;52.062;11.722;2023-05-20T11:58:00;101847.53;;;18.41;100.00
47670;BME280;33408;52.062;11.722;2023-05-20T12:00:28;101853.69;;;17.85;100.00
47670;BME280;33408;52.062;11.722;2023-05-20T12:02:55;101847.13;;;18.00;100.00
47670;BME280;33408;52.062;11.722;2023-05-20T12:05:21;101836.16;;;18.41;99.63
47670;BME280;33408;52.062;11.722;2023-05-20T12:07:48;101846.31;;;18.25;97.31
47670;BME280;33408;52.062;11.722;2023-05-20T12:10:15;101829.91;;;18.45;96.88
47670;BME280;33408;52.062;11.722;2023-05-20T12:12:42;101833.09;;;18.55;95.75
47670;BME280;33408;52.062;11.722;2023-05-20T12:15:11;101821.41;;;18.64;93.12
47670;BME280;33408;52.062;11.722;2023-05-20T12:17:46;101807.72;;;18.54;95.17
47670;BME280;33408;52.062;11.722;2023-05-20T12:20:14;101797.28;;;18.52;96.11
47670;BME280;33408;52.062;11.722;2023-05-20T12:22:42;101793.25;;;18.67;93.32
47670;BME280;33408;52.062;11.722;2023-05-20T12:25:10;101797.94;;;19.31;91.13
47670;BME280;33408;52.062;11.722;2023-05-20T12:27:37;101798.75;;;19.56;90.07
47670;BME280;33408;52.062;11.722;2023-05-20T12:30:05;101788.47;;;19.27;88.31
47670;BME280;33408;52.062;11.722;2023-05-20T12:32:34;101776.56;;;19.41;87.33